sensor_id;sensor_type;location;lat;lon;timestamp;pressure;altitude;pressure_sealevel;temperature;humidity
51417;BME280;50158;51.528;6.982;2022-12-16T00:00:40;65730;;;-6.1;100
51417;BME280;50158;51.528;6.982;2022-12-16T00:03:09;65740;;;-6.01;100
51417;BME280;50158;51.528;6.982;2022-12-16T00:05:37;65730;;;-6.05;100
51417;BME280;50158;51.528;6.982;2022-12-16T00:08:05;65730;;;-6.06;100
51417;BME280;50158;51.528;6.982;2022-12-16T00:10:34;65710;;;-6.2;100
51417;BME280;50158;51.528;6.982;2022-12-16T00:13:02;65690;;;-6.4;100
51417;BME280;50158;51.528;6.982;2022-12-16T00:15:30;65690;;;-6.44;100
51417;BME280;50158;51.528;6.982;2022-12-16T00:17:58;65700;;;-6.35;100
51417;BME280;50158;51.528;6.982;2022-12-16T00:20:27;65710;;;-6.23;100
51417;BME280;50158;51.528;6.982;2022-12-16T00:22:55;65710;;;-6.29;100
51417;BME280;50158;51.528;6.982;2022-12-16T00:25:23;65680;;;-6.49;100
51417;BME280;50158;51.528;6.982;2022-12-16T00:27:51;65690;;;-6.44;100
51417;BME280;50158;51.528;6.982;2022-12-16T00:30:20;65700;;;-6.35;100
51417;BME280;50158;51.528;6.982;2022-12-16T00:32:48;65690;;;-6.42;100
51417;BME280;50158;51.528;6.982;2022-12-16T00:35:16;65700;;;-6.33;100
51417;BME280;50158;51.528;6.982;2022-12-16T00:37:46;65700;;;-6.36;100
51417;BME280;50158;51.528;6.982;2022-12-16T00:40:13;65700;;;-6.36;100
51417;BME280;50158;51.528;6.982;2022-12-16T00:42:41;65680;;;-6.52;100
51417;BME280;50158;51.528;6.982;2022-12-16T00:45:09;65690;;;-6.44;100
51417;BME280;50158;51.528;6.982;2022-12-16T00:47:38;65870;;;-4.78;100
51417;BME280;50158;51.528;6.982;2022-12-16T00:52:02;65780;;;-5.58;100
51417;BME280;50158;51.528;6.982;2022-12-16T00:54:30;65730;;;-6.06;100
51417;BME280;50158;51.528;6.982;2022-12-16T00:56:58;65730;;;-6.08;100
51417;BME280;50158;51.528;6.982;2022-12-16T00:59:26;65700;;;-6.29;100
51417;BME280;50158;51.528;6.982;2022-12-16T01:01:55;65690;;;-6.44;100
51417;BME280;50158;51.528;6.982;2022-12-16T01:04:23;65690;;;-6.47;100
51417;BME280;50158;51.528;6.982;2022-12-16T01:06:51;65680;;;-6.55;100
51417;BME280;50158;51.528;6.982;2022-12-16T01:09:19;65680;;;-6.53;100
51417;BME280;50158;51.528;6.982;2022-12-16T01:11:48;65700;;;-6.35;100
51417;BME280;50158;51.528;6.982;2022-12-16T01:14:16;65700;;;-6.36;100
51417;BME280;50158;51.528;6.982;2022-12-16T01:16:44;65700;;;-6.32;100
51417;BME280;50158;51.528;6.982;2022-12-16T01:19:13;65710;;;-6.25;100
51417;BME280;50158;51.528;6.982;2022-12-16T01:21:41;65690;;;-6.4;100
51417;BME280;50158;51.528;6.982;2022-12-16T01:24:09;65700;;;-6.35;100
51417;BME280;50158;51.528;6.982;2022-12-16T01:26:37;65710;;;-6.26;100
51417;BME280;50158;51.528;6.982;2022-12-16T01:29:06;65730;;;-6.1;100
51417;BME280;50158;51.528;6.982;2022-12-16T01:31:34;65700;;;-6.35;100
51417;BME280;50158;51.528;6.982;2022-12-16T01:34:02;65700;;;-6.38;100
51417;BME280;50158;51.528;6.982;2022-12-16T01:36:30;65690;;;-6.43;100
51417;BME280;50158;51.528;6.982;2022-12-16T01:38:59;65700;;;-6.35;100
51417;BME280;50158;51.528;6.982;2022-12-16T01:41:27;65710;;;-6.3;100
51417;BME280;50158;51.528;6.982;2022-12-16T01:44:12;65720;;;-6.14;100
51417;BME280;50158;51.528;6.982;2022-12-16T01:48:38;65740;;;-6;100
51417;BME280;50158;51.528;6.982;2022-12-16T01:50:47;65740;;;-5.95;100
51417;BME280;50158;51.528;6.982;2022-12-16T01:53:16;65740;;;-5.92;100
51417;BME280;50158;51.528;6.982;2022-12-16T01:55:45;65730;;;-6.1;100
51417;BME280;50158;51.528;6.982;2022-12-16T01:58:13;65750;;;-5.87;100
51417;BME280;50158;51.528;6.982;2022-12-16T02:00:40;65760;;;-5.78;100
51417;BME280;50158;51.528;6.982;2022-12-16T02:03:09;65760;;;-5.76;100
51417;BME280;50158;51.528;6.982;2022-12-16T02:05:38;65770;;;-5.71;100
51417;BME280;50158;51.528;6.982;2022-12-16T02:10:56;65770;;;-5.69;100
51417;BME280;50158;51.528;6.982;2022-12-16T02:13:38;65760;;;-5.76;100
51417;BME280;50158;51.528;6.982;2022-12-16T02:15:58;65790;;;-5.54;100
51417;BME280;50158;51.528;6.982;2022-12-16T02:18:17;65790;;;-5.48;100
51417;BME280;50158;51.528;6.982;2022-12-16T02:21:51;65770;;;-5.67;100
51417;BME280;50158;51.528;6.982;2022-12-16T02:23:16;65790;;;-5.54;100
51417;BME280;50158;51.528;6.982;2022-12-16T02:25:45;65780;;;-5.56;100
51417;BME280;50158;51.528;6.982;2022-12-16T02:28:10;65780;;;-5.57;100
51417;BME280;50158;51.528;6.982;2022-12-16T02:30:38;65800;;;-5.35;100
51417;BME280;50158;51.528;6.982;2022-12-16T02:33:09;65790;;;-5.46;100
51417;BME280;50158;51.528;6.982;2022-12-16T02:35:34;65810;;;-5.31;100
51417;BME280;50158;51.528;6.982;2022-12-16T02:38:09;65790;;;-5.47;100
51417;BME280;50158;51.528;6.982;2022-12-16T02:40:32;65820;;;-5.24;100
51417;BME280;50158;51.528;6.982;2022-12-16T02:42:59;65800;;;-5.4;100
51417;BME280;50158;51.528;6.982;2022-12-16T02:45:27;65800;;;-5.44;100
51417;BME280;50158;51.528;6.982;2022-12-16T02:47:54;65810;;;-5.3;100
51417;BME280;50158;51.528;6.982;2022-12-16T02:50:25;65810;;;-5.28;100
51417;BME280;50158;51.528;6.982;2022-12-16T02:54:46;65800;;;-5.4;100
51417;BME280;50158;51.528;6.982;2022-12-16T02:57:26;65800;;;-5.4;100
51417;BME280;50158;51.528;6.982;2022-12-16T02:59:47;65790;;;-5.54;100
51417;BME280;50158;51.528;6.982;2022-12-16T03:02:15;65780;;;-5.6;100
51417;BME280;50158;51.528;6.982;2022-12-16T03:04:42;65790;;;-5.49;100
51417;BME280;50158;51.528;6.982;2022-12-16T03:07:09;65790;;;-5.55;100
51417;BME280;50158;51.528;6.982;2022-12-16T03:09:36;65730;;;-6.02;100
51417;BME280;50158;51.528;6.982;2022-12-16T03:12:05;65720;;;-6.18;100
51417;BME280;50158;51.528;6.982;2022-12-16T03:14:33;65750;;;-5.92;100
51417;BME280;50158;51.528;6.982;2022-12-16T03:17:01;65710;;;-6.2;100
51417;BME280;50158;51.528;6.982;2022-12-16T03:19:29;65710;;;-6.27;100
51417;BME280;50158;51.528;6.982;2022-12-16T03:22:02;65720;;;-6.19;100
51417;BME280;50158;51.528;6.982;2022-12-16T03:24:25;65720;;;-6.17;100
51417;BME280;50158;51.528;6.982;2022-12-16T03:27:03;65730;;;-6.02;100
51417;BME280;50158;51.528;6.982;2022-12-16T03:29:25;65780;;;-5.55;100
51417;BME280;50158;51.528;6.982;2022-12-16T03:31:53;65760;;;-5.76;100
51417;BME280;50158;51.528;6.982;2022-12-16T03:34:35;65720;;;-6.13;100
51417;BME280;50158;51.528;6.982;2022-12-16T03:36:48;65730;;;-6.06;100
51417;BME280;50158;51.528;6.982;2022-12-16T03:39:15;65710;;;-6.24;100
51417;BME280;50158;51.528;6.982;2022-12-16T03:41:43;65710;;;-6.21;100
51417;BME280;50158;51.528;6.982;2022-12-16T03:44:12;65700;;;-6.38;100
51417;BME280;50158;51.528;6.982;2022-12-16T03:46:40;65700;;;-6.29;100
51417;BME280;50158;51.528;6.982;2022-12-16T03:49:08;65700;;;-6.31;100
51417;BME280;50158;51.528;6.982;2022-12-16T03:51:36;65720;;;-6.19;100
51417;BME280;50158;51.528;6.982;2022-12-16T03:56:00;65650;;;-6.79;100
51417;BME280;50158;51.528;6.982;2022-12-16T03:58:28;65670;;;-6.64;100
51417;BME280;50158;51.528;6.982;2022-12-16T04:00:57;65690;;;-6.43;100
51417;BME280;50158;51.528;6.982;2022-12-16T04:03:25;65690;;;-6.45;100
51417;BME280;50158;51.528;6.982;2022-12-16T04:05:53;65720;;;-6.15;100
51417;BME280;50158;51.528;6.982;2022-12-16T04:08:22;65720;;;-6.14;100
51417;BME280;50158;51.528;6.982;2022-12-16T04:10:50;65720;;;-6.18;100
51417;BME280;50158;51.528;6.982;2022-12-16T04:13:18;65710;;;-6.22;100
51417;BME280;50158;51.528;6.982;2022-12-16T04:15:46;65710;;;-6.28;100
51417;BME280;50158;51.528;6.982;2022-12-16T04:18:15;66020;;;-3.31;100
51417;BME280;50158;51.528;6.982;2022-12-16T04:20:44;65920;;;-4.23;100
51417;BME280;50158;51.528;6.982;2022-12-16T04:23:11;65830;;;-5.07;100
51417;BME280;50158;51.528;6.982;2022-12-16T04:25:39;65760;;;-5.8;100
51417;BME280;50158;51.528;6.982;2022-12-16T04:28:08;65730;;;-6.12;100
51417;BME280;50158;51.528;6.982;2022-12-16T04:30:36;65660;;;-6.75;100
51417;BME280;50158;51.528;6.982;2022-12-16T04:33:05;65670;;;-6.68;100
51417;BME280;50158;51.528;6.982;2022-12-16T04:35:33;65730;;;-6.09;100
51417;BME280;50158;51.528;6.982;2022-12-16T04:40:46;65750;;;-5.92;100
51417;BME280;50158;51.528;6.982;2022-12-16T04:43:14;65760;;;-5.75;100
51417;BME280;50158;51.528;6.982;2022-12-16T04:45:44;65790;;;-5.5;100
51417;BME280;50158;51.528;6.982;2022-12-16T04:48:10;65780;;;-5.55;100
51417;BME280;50158;51.528;6.982;2022-12-16T04:50:39;65800;;;-5.4;100
51417;BME280;50158;51.528;6.982;2022-12-16T04:53:07;65820;;;-5.22;100
51417;BME280;50158;51.528;6.982;2022-12-16T04:57:31;65810;;;-5.31;100
51417;BME280;50158;51.528;6.982;2022-12-16T04:59:59;65800;;;-5.38;100
51417;BME280;50158;51.528;6.982;2022-12-16T05:02:27;65820;;;-5.21;100
51417;BME280;50158;51.528;6.982;2022-12-16T05:04:55;65790;;;-5.45;100
51417;BME280;50158;51.528;6.982;2022-12-16T05:07:24;65800;;;-5.43;100
51417;BME280;50158;51.528;6.982;2022-12-16T05:09:52;65790;;;-5.48;100
51417;BME280;50158;51.528;6.982;2022-12-16T05:12:20;65760;;;-5.74;100
51417;BME280;50158;51.528;6.982;2022-12-16T05:14:49;65770;;;-5.72;100
51417;BME280;50158;51.528;6.982;2022-12-16T05:17:18;65760;;;-5.76;100
51417;BME280;50158;51.528;6.982;2022-12-16T05:19:45;65750;;;-5.84;100
51417;BME280;50158;51.528;6.982;2022-12-16T05:22:13;65760;;;-5.79;100
51417;BME280;50158;51.528;6.982;2022-12-16T05:24:42;65750;;;-5.86;100
51417;BME280;50158;51.528;6.982;2022-12-16T05:27:10;65730;;;-6.05;100
51417;BME280;50158;51.528;6.982;2022-12-16T05:29:38;65740;;;-5.91;100
51417;BME280;50158;51.528;6.982;2022-12-16T05:32:07;65750;;;-5.83;100
51417;BME280;50158;51.528;6.982;2022-12-16T05:34:35;65720;;;-6.12;100
51417;BME280;50158;51.528;6.982;2022-12-16T05:37:03;65730;;;-6.04;100
51417;BME280;50158;51.528;6.982;2022-12-16T05:39:31;65750;;;-5.85;100
51417;BME280;50158;51.528;6.982;2022-12-16T05:42:00;65760;;;-5.75;100
51417;BME280;50158;51.528;6.982;2022-12-16T05:44:28;65750;;;-5.9;100
51417;BME280;50158;51.528;6.982;2022-12-16T05:46:56;65750;;;-5.92;100
51417;BME280;50158;51.528;6.982;2022-12-16T05:49:24;65740;;;-5.99;100
51417;BME280;50158;51.528;6.982;2022-12-16T05:51:53;65750;;;-5.86;100
51417;BME280;50158;51.528;6.982;2022-12-16T05:54:21;65740;;;-5.98;100
51417;BME280;50158;51.528;6.982;2022-12-16T05:58:45;65730;;;-6.06;100
51417;BME280;50158;51.528;6.982;2022-12-16T06:01:13;65750;;;-5.88;100
51417;BME280;50158;51.528;6.982;2022-12-16T06:03:41;65750;;;-5.89;100
51417;BME280;50158;51.528;6.982;2022-12-16T06:06:10;65730;;;-6.06;100
51417;BME280;50158;51.528;6.982;2022-12-16T06:08:38;65740;;;-5.91;100
51417;BME280;50158;51.528;6.982;2022-12-16T06:11:06;65740;;;-5.94;100
51417;BME280;50158;51.528;6.982;2022-12-16T06:13:34;65720;;;-6.2;100
51417;BME280;50158;51.528;6.982;2022-12-16T06:16:03;65730;;;-6.09;100
51417;BME280;50158;51.528;6.982;2022-12-16T06:18:31;65740;;;-5.98;100
51417;BME280;50158;51.528;6.982;2022-12-16T06:20:59;65730;;;-6.04;100
51417;BME280;50158;51.528;6.982;2022-12-16T06:23:28;65730;;;-6.06;100
51417;BME280;50158;51.528;6.982;2022-12-16T06:25:56;65740;;;-5.93;100
51417;BME280;50158;51.528;6.982;2022-12-16T06:28:24;65760;;;-5.78;100
51417;BME280;50158;51.528;6.982;2022-12-16T06:30:52;65790;;;-5.49;100
51417;BME280;50158;51.528;6.982;2022-12-16T06:33:21;65790;;;-5.49;100
51417;BME280;50158;51.528;6.982;2022-12-16T06:35:49;65710;;;-6.27;100
51417;BME280;50158;51.528;6.982;2022-12-16T06:38:17;65680;;;-6.57;100
51417;BME280;50158;51.528;6.982;2022-12-16T06:40:45;65670;;;-6.6;100
51417;BME280;50158;51.528;6.982;2022-12-16T06:43:14;65690;;;-6.48;100
51417;BME280;50158;51.528;6.982;2022-12-16T06:45:42;65680;;;-6.55;100
51417;BME280;50158;51.528;6.982;2022-12-16T06:48:10;65670;;;-6.65;100
51417;BME280;50158;51.528;6.982;2022-12-16T06:50:39;65680;;;-6.53;100
51417;BME280;50158;51.528;6.982;2022-12-16T06:53:07;65760;;;-5.76;100
51417;BME280;50158;51.528;6.982;2022-12-16T06:55:35;65770;;;-5.68;100
51417;BME280;50158;51.528;6.982;2022-12-16T06:59:59;65700;;;-6.38;100
51417;BME280;50158;51.528;6.982;2022-12-16T07:02:27;65650;;;-6.84;100
51417;BME280;50158;51.528;6.982;2022-12-16T07:04:55;65550;;;-7.7;100
51417;BME280;50158;51.528;6.982;2022-12-16T07:10:08;65490;;;-8.35;100
51417;BME280;50158;51.528;6.982;2022-12-16T07:12:37;65460;;;-8.63;100
51417;BME280;50158;51.528;6.982;2022-12-16T07:15:05;65440;;;-8.75;100
51417;BME280;50158;51.528;6.982;2022-12-16T07:17:33;65420.00000000001;;;-8.93;100
51417;BME280;50158;51.528;6.982;2022-12-16T07:20:02;65410;;;-9.03;100
51417;BME280;50158;51.528;6.982;2022-12-16T07:22:30;65420.00000000001;;;-8.96;100
51417;BME280;50158;51.528;6.982;2022-12-16T07:24:58;65420.00000000001;;;-9;100
51417;BME280;50158;51.528;6.982;2022-12-16T07:27:26;65410;;;-9.09;100
51417;BME280;50158;51.528;6.982;2022-12-16T07:29:55;65420.00000000001;;;-9;100
51417;BME280;50158;51.528;6.982;2022-12-16T07:32:23;65410;;;-9.02;100
51417;BME280;50158;51.528;6.982;2022-12-16T07:34:51;65420.00000000001;;;-9;100
51417;BME280;50158;51.528;6.982;2022-12-16T07:37:19;65420.00000000001;;;-8.93;100
51417;BME280;50158;51.528;6.982;2022-12-16T07:39:48;65420.00000000001;;;-8.95;100
51417;BME280;50158;51.528;6.982;2022-12-16T07:42:16;65420.00000000001;;;-8.92;100
51417;BME280;50158;51.528;6.982;2022-12-16T07:44:44;65440;;;-8.81;100
51417;BME280;50158;51.528;6.982;2022-12-16T07:47:13;65440;;;-8.74;100
51417;BME280;50158;51.528;6.982;2022-12-16T07:49:41;65460;;;-8.6;100
51417;BME280;50158;51.528;6.982;2022-12-16T07:52:09;65479.99999999999;;;-8.39;100
51417;BME280;50158;51.528;6.982;2022-12-16T07:56:33;65520.00000000001;;;-7.99;100
51417;BME280;50158;51.528;6.982;2022-12-16T07:59:01;65550;;;-7.74;100
51417;BME280;50158;51.528;6.982;2022-12-16T08:01:29;65570;;;-7.52;100
51417;BME280;50158;51.528;6.982;2022-12-16T08:03:58;65620;;;-7.12;100
51417;BME280;50158;51.528;6.982;2022-12-16T08:06:26;65610;;;-7.14;100
51417;BME280;50158;51.528;6.982;2022-12-16T08:08:54;65630;;;-7.01;100
51417;BME280;50158;51.528;6.982;2022-12-16T08:11:23;65640;;;-6.87;100
51417;BME280;50158;51.528;6.982;2022-12-16T08:13:51;65670;;;-6.65;100
51417;BME280;50158;51.528;6.982;2022-12-16T08:16:19;65680;;;-6.49;100
51417;BME280;50158;51.528;6.982;2022-12-16T08:18:47;65710;;;-6.2;100
51417;BME280;50158;51.528;6.982;2022-12-16T08:21:16;65720;;;-6.11;100
51417;BME280;50158;51.528;6.982;2022-12-16T08:23:44;65770;;;-5.68;100
51417;BME280;50158;51.528;6.982;2022-12-16T08:26:12;65790;;;-5.44;100
51417;BME280;50158;51.528;6.982;2022-12-16T08:28:40;65820;;;-5.17;100
51417;BME280;50158;51.528;6.982;2022-12-16T08:31:09;65850;;;-4.94;100
51417;BME280;50158;51.528;6.982;2022-12-16T08:33:37;65870;;;-4.73;100
51417;BME280;50158;51.528;6.982;2022-12-16T08:36:05;65880;;;-4.66;100
51417;BME280;50158;51.528;6.982;2022-12-16T08:38:34;65890;;;-4.59;100
51417;BME280;50158;51.528;6.982;2022-12-16T08:41:02;65900;;;-4.46;100
51417;BME280;50158;51.528;6.982;2022-12-16T08:43:31;65890;;;-4.6;100
51417;BME280;50158;51.528;6.982;2022-12-16T08:45:58;65900;;;-4.46;100
51417;BME280;50158;51.528;6.982;2022-12-16T08:48:27;65900;;;-4.5;100
51417;BME280;50158;51.528;6.982;2022-12-16T08:50:55;65920;;;-4.3;100
51417;BME280;50158;51.528;6.982;2022-12-16T08:53:23;65940;;;-4.06;100
51417;BME280;50158;51.528;6.982;2022-12-16T08:57:54;65930;;;-4.13;100
51417;BME280;50158;51.528;6.982;2022-12-16T09:00:15;65940;;;-4.09;100
51417;BME280;50158;51.528;6.982;2022-12-16T09:02:44;65940;;;-4.11;100
51417;BME280;50158;51.528;6.982;2022-12-16T09:05:12;65940;;;-4.13;100
51417;BME280;50158;51.528;6.982;2022-12-16T09:07:40;65930;;;-4.17;100
51417;BME280;50158;51.528;6.982;2022-12-16T09:10:08;65960;;;-3.93;100
51417;BME280;50158;51.528;6.982;2022-12-16T09:12:37;65950;;;-3.96;100
51417;BME280;50158;51.528;6.982;2022-12-16T09:15:05;65950;;;-3.99;100
51417;BME280;50158;51.528;6.982;2022-12-16T09:17:33;65970;;;-3.84;100
51417;BME280;50158;51.528;6.982;2022-12-16T09:20:02;65960;;;-3.9;100
51417;BME280;50158;51.528;6.982;2022-12-16T09:22:30;65970;;;-3.84;100
51417;BME280;50158;51.528;6.982;2022-12-16T09:24:58;65970;;;-3.84;100
51417;BME280;50158;51.528;6.982;2022-12-16T09:27:26;65960;;;-3.86;100
51417;BME280;50158;51.528;6.982;2022-12-16T09:29:55;65980;;;-3.71;100
51417;BME280;50158;51.528;6.982;2022-12-16T09:32:23;65990;;;-3.64;100
51417;BME280;50158;51.528;6.982;2022-12-16T09:34:51;65990;;;-3.6;100
51417;BME280;50158;51.528;6.982;2022-12-16T09:40:04;66010;;;-3.43;100
51417;BME280;50158;51.528;6.982;2022-12-16T09:42:40;66030;;;-3.27;100
51417;BME280;50158;51.528;6.982;2022-12-16T09:45:02;66040;;;-3.18;100
51417;BME280;50158;51.528;6.982;2022-12-16T09:48:03;66040;;;-3.19;100
51417;BME280;50158;51.528;6.982;2022-12-16T09:49:58;66050;;;-3.09;100
51417;BME280;50158;51.528;6.982;2022-12-16T09:52:25;66080;;;-2.78;100
51417;BME280;50158;51.528;6.982;2022-12-16T09:54:54;66070;;;-2.9;100
51417;BME280;50158;51.528;6.982;2022-12-16T09:57:22;66040;;;-3.12;100
51417;BME280;50158;51.528;6.982;2022-12-16T09:59:52;66080;;;-2.79;100
51417;BME280;50158;51.528;6.982;2022-12-16T10:02:19;66050;;;-3.05;100
51417;BME280;50158;51.528;6.982;2022-12-16T10:04:49;66070;;;-2.89;100
51417;BME280;50158;51.528;6.982;2022-12-16T10:07:17;66080;;;-2.77;100
51417;BME280;50158;51.528;6.982;2022-12-16T10:11:46;66090;;;-2.71;100
51417;BME280;50158;51.528;6.982;2022-12-16T10:14:08;66070;;;-2.84;100
51417;BME280;50158;51.528;6.982;2022-12-16T10:16:55;66090;;;-2.71;100
51417;BME280;50158;51.528;6.982;2022-12-16T10:19:26;66080;;;-2.75;100
51417;BME280;50158;51.528;6.982;2022-12-16T10:21:34;66100;;;-2.63;100
51417;BME280;50158;51.528;6.982;2022-12-16T10:24:03;66120;;;-2.4;100
51417;BME280;50158;51.528;6.982;2022-12-16T10:26:35;66120;;;-2.43;100
51417;BME280;50158;51.528;6.982;2022-12-16T10:28:59;66100;;;-2.56;100
51417;BME280;50158;51.528;6.982;2022-12-16T10:33:53;66130;;;-2.26;100
51417;BME280;50158;51.528;6.982;2022-12-16T10:36:22;66130;;;-2.32;100
51417;BME280;50158;51.528;6.982;2022-12-16T10:38:52;66140;;;-2.25;100
51417;BME280;50158;51.528;6.982;2022-12-16T10:41:19;66140;;;-2.22;100
51417;BME280;50158;51.528;6.982;2022-12-16T10:43:46;66160;;;-2.06;100
51417;BME280;50158;51.528;6.982;2022-12-16T10:46:17;66190;;;-1.79;100
51417;BME280;50158;51.528;6.982;2022-12-16T10:48:43;66190;;;-1.74;100
51417;BME280;50158;51.528;6.982;2022-12-16T10:53:40;66150;;;-2.1;100
51417;BME280;50158;51.528;6.982;2022-12-16T10:56:46;66160;;;-2.02;100
51417;BME280;50158;51.528;6.982;2022-12-16T10:58:42;66180;;;-1.81;100
51417;BME280;50158;51.528;6.982;2022-12-16T11:01:19;66190;;;-1.79;100
51417;BME280;50158;51.528;6.982;2022-12-16T11:03:33;66210;;;-1.56;100
51417;BME280;50158;51.528;6.982;2022-12-16T11:06:01;66220;;;-1.47;100
51417;BME280;50158;51.528;6.982;2022-12-16T11:08:31;66220;;;-1.45;100
51417;BME280;50158;51.528;6.982;2022-12-16T11:10:57;66210;;;-1.59;100
51417;BME280;50158;51.528;6.982;2022-12-16T11:13:30;66220;;;-1.47;100
51417;BME280;50158;51.528;6.982;2022-12-16T11:17:59;66240;;;-1.31;100
51417;BME280;50158;51.528;6.982;2022-12-16T11:20:19;66230;;;-1.38;100
51417;BME280;50158;51.528;6.982;2022-12-16T11:22:46;66230;;;-1.42;100
51417;BME280;50158;51.528;6.982;2022-12-16T11:25:15;66220;;;-1.48;100
51417;BME280;50158;51.528;6.982;2022-12-16T11:27:43;66230;;;-1.37;100
51417;BME280;50158;51.528;6.982;2022-12-16T11:30:21;66230;;;-1.34;100
51417;BME280;50158;51.528;6.982;2022-12-16T11:32:42;66270;;;-1.03;100
51417;BME280;50158;51.528;6.982;2022-12-16T11:35:09;66290;;;-0.83;100
51417;BME280;50158;51.528;6.982;2022-12-16T11:37:36;66300;;;-0.75;100
51417;BME280;50158;51.528;6.982;2022-12-16T11:40:04;66300;;;-0.7;100
51417;BME280;50158;51.528;6.982;2022-12-16T11:42:32;66300;;;-0.67;100
51417;BME280;50158;51.528;6.982;2022-12-16T11:49:57;66330;;;-0.47;100
51417;BME280;50158;51.528;6.982;2022-12-16T11:52:25;66340;;;-0.39;100
51417;BME280;50158;51.528;6.982;2022-12-16T11:54:59;66320;;;-0.5;100
51417;BME280;50158;51.528;6.982;2022-12-16T11:57:27;66330;;;-0.46;100
51417;BME280;50158;51.528;6.982;2022-12-16T11:59:52;66320;;;-0.57;100
51417;BME280;50158;51.528;6.982;2022-12-16T12:02:22;66340;;;-0.36;100
51417;BME280;50158;51.528;6.982;2022-12-16T12:04:48;66340;;;-0.36;100
51417;BME280;50158;51.528;6.982;2022-12-16T12:10:05;66340;;;-0.32;100
51417;BME280;50158;51.528;6.982;2022-12-16T12:14:33;66320;;;-0.58;100
51417;BME280;50158;51.528;6.982;2022-12-16T12:17:24;66300;;;-0.68;100
51417;BME280;50158;51.528;6.982;2022-12-16T12:19:24;66290;;;-0.81;100
51417;BME280;50158;51.528;6.982;2022-12-16T12:21:50;66290;;;-0.79;100
51417;BME280;50158;51.528;6.982;2022-12-16T12:24:22;66290;;;-0.84;100
51417;BME280;50158;51.528;6.982;2022-12-16T12:26:48;66290;;;-0.84;100
51417;BME280;50158;51.528;6.982;2022-12-16T12:29:17;66280;;;-0.86;100
51417;BME280;50158;51.528;6.982;2022-12-16T12:31:47;66300;;;-0.74;100
51417;BME280;50158;51.528;6.982;2022-12-16T12:34:42;66290;;;-0.81;100
51417;BME280;50158;51.528;6.982;2022-12-16T12:36:45;66290;;;-0.87;100
51417;BME280;50158;51.528;6.982;2022-12-16T12:39:40;66290;;;-0.81;100
51417;BME280;50158;51.528;6.982;2022-12-16T12:41:41;66280;;;-0.87;100
51417;BME280;50158;51.528;6.982;2022-12-16T12:44:05;66270;;;-0.97;100
51417;BME280;50158;51.528;6.982;2022-12-16T12:46:35;66270;;;-0.99;100
51417;BME280;50158;51.528;6.982;2022-12-16T12:49:02;66270;;;-0.99;100
51417;BME280;50158;51.528;6.982;2022-12-16T12:51:30;66280;;;-0.94;100
51417;BME280;50158;51.528;6.982;2022-12-16T12:54:02;66270;;;-1;100
51417;BME280;50158;51.528;6.982;2022-12-16T12:56:31;66260;;;-1.07;100
51417;BME280;50158;51.528;6.982;2022-12-16T12:58:53;66260;;;-1.07;100
51417;BME280;50158;51.528;6.982;2022-12-16T13:01:21;66270;;;-1.03;100
51417;BME280;50158;51.528;6.982;2022-12-16T13:03:50;66260;;;-1.15;100
51417;BME280;50158;51.528;6.982;2022-12-16T13:06:17;66260;;;-1.1;100
51417;BME280;50158;51.528;6.982;2022-12-16T13:08:54;66260;;;-1.12;100
51417;BME280;50158;51.528;6.982;2022-12-16T13:11:14;66270;;;-1.03;100
51417;BME280;50158;51.528;6.982;2022-12-16T13:13:42;66270;;;-1.02;100
51417;BME280;50158;51.528;6.982;2022-12-16T13:16:11;66260;;;-1.1;100
51417;BME280;50158;51.528;6.982;2022-12-16T13:20:35;66260;;;-1.08;100
51417;BME280;50158;51.528;6.982;2022-12-16T13:23:18;66270;;;-1.01;100
51417;BME280;50158;51.528;6.982;2022-12-16T13:25:33;66250;;;-1.19;100
51417;BME280;50158;51.528;6.982;2022-12-16T13:27:59;66250;;;-1.21;100
51417;BME280;50158;51.528;6.982;2022-12-16T13:30:27;66260;;;-1.14;100
51417;BME280;50158;51.528;6.982;2022-12-16T13:32:57;66270;;;-1;100
51417;BME280;50158;51.528;6.982;2022-12-16T13:35:24;66250;;;-1.15;100
51417;BME280;50158;51.528;6.982;2022-12-16T13:38:24;66240;;;-1.27;100
51417;BME280;50158;51.528;6.982;2022-12-16T13:40:21;66230;;;-1.38;100
51417;BME280;50158;51.528;6.982;2022-12-16T13:42:50;66220;;;-1.44;100
51417;BME280;50158;51.528;6.982;2022-12-16T13:45:34;66220;;;-1.43;100
51417;BME280;50158;51.528;6.982;2022-12-16T13:50:46;66240;;;-1.32;100
51417;BME280;50158;51.528;6.982;2022-12-16T13:52:45;66240;;;-1.29;100
51417;BME280;50158;51.528;6.982;2022-12-16T13:57:40;66270;;;-0.99;100
51417;BME280;50158;51.528;6.982;2022-12-16T14:00:23;66260;;;-1.11;100
51417;BME280;50158;51.528;6.982;2022-12-16T14:02:37;66240;;;-1.3;100
51417;BME280;50158;51.528;6.982;2022-12-16T14:05:03;66240;;;-1.32;100
51417;BME280;50158;51.528;6.982;2022-12-16T14:07:32;66240;;;-1.3;100
51417;BME280;50158;51.528;6.982;2022-12-16T14:10:00;66250;;;-1.2;100
51417;BME280;50158;51.528;6.982;2022-12-16T14:16:54;66280;;;-0.93;100
51417;BME280;50158;51.528;6.982;2022-12-16T14:19:23;66270;;;-0.96;100
51417;BME280;50158;51.528;6.982;2022-12-16T14:21:50;66270;;;-1.04;100
51417;BME280;50158;51.528;6.982;2022-12-16T14:24:19;66250;;;-1.16;100
51417;BME280;50158;51.528;6.982;2022-12-16T14:26:45;66240;;;-1.24;100
51417;BME280;50158;51.528;6.982;2022-12-16T14:29:20;66240;;;-1.26;100
51417;BME280;50158;51.528;6.982;2022-12-16T14:31:42;66240;;;-1.31;100
51417;BME280;50158;51.528;6.982;2022-12-16T14:34:26;66220;;;-1.45;100
51417;BME280;50158;51.528;6.982;2022-12-16T14:39:39;66230;;;-1.43;100
51417;BME280;50158;51.528;6.982;2022-12-16T14:42:17;66220;;;-1.45;100
51417;BME280;50158;51.528;6.982;2022-12-16T14:44:35;66210;;;-1.57;100
51417;BME280;50158;51.528;6.982;2022-12-16T14:47:04;66200;;;-1.63;100
51417;BME280;50158;51.528;6.982;2022-12-16T14:49:32;66180;;;-1.8;100
51417;BME280;50158;51.528;6.982;2022-12-16T14:52:00;66170;;;-1.97;100
51417;BME280;50158;51.528;6.982;2022-12-16T14:54:30;66150;;;-2.11;100
51417;BME280;50158;51.528;6.982;2022-12-16T14:56:57;66140;;;-2.22;100
51417;BME280;50158;51.528;6.982;2022-12-16T14:59:25;66140;;;-2.24;100